sensor_id;sensor_type;location;lat;lon;timestamp;pressure;altitude;pressure_sealevel;temperature;humidity
45525;BME280;31437;58.350;13.828;2023-03-03T00:00:19;100738.78;;;1.81;100.00
45525;BME280;31437;58.350;13.828;2023-03-03T00:02:45;100757.81;;;1.74;100.00
45525;BME280;31437;58.350;13.828;2023-03-03T00:05:10;100783.75;;;1.65;100.00
45525;BME280;31437;58.350;13.828;2023-03-03T00:07:40;100804.50;;;1.55;100.00
45525;BME280;31437;58.350;13.828;2023-03-03T00:10:07;100820.94;;;1.47;100.00
45525;BME280;31437;58.350;13.828;2023-03-03T00:12:44;100827.91;;;1.39;100.00
45525;BME280;31437;58.350;13.828;2023-03-03T00:15:17;100870.16;;;1.34;100.00
45525;BME280;31437;58.350;13.828;2023-03-03T00:17:43;100877.94;;;1.30;100.00
45525;BME280;31437;58.350;13.828;2023-03-03T00:22:52;100858.19;;;1.17;100.00
45525;BME280;31437;58.350;13.828;2023-03-03T00:27:43;100857.34;;;1.10;100.00
45525;BME280;31437;58.350;13.828;2023-03-03T00:30:24;100857.38;;;1.02;100.00
45525;BME280;31437;58.350;13.828;2023-03-03T00:32:50;100872.06;;;0.96;100.00
45525;BME280;31437;58.350;13.828;2023-03-03T00:35:26;100867.78;;;0.92;100.00
45525;BME280;31437;58.350;13.828;2023-03-03T00:37:56;100860.91;;;0.89;100.00
45525;BME280;31437;58.350;13.828;2023-03-03T00:40:23;100845.38;;;0.87;100.00
45525;BME280;31437;58.350;13.828;2023-03-03T00:42:50;100844.56;;;0.85;100.00
45525;BME280;31437;58.350;13.828;2023-03-03T00:45:27;100832.47;;;0.87;100.00
45525;BME280;31437;58.350;13.828;2023-03-03T00:47:53;100819.56;;;0.89;100.00
45525;BME280;31437;58.350;13.828;2023-03-03T00:50:28;100817.81;;;0.93;100.00
45525;BME280;31437;58.350;13.828;2023-03-03T00:55:20;100812.63;;;0.96;100.00
45525;BME280;31437;58.350;13.828;2023-03-03T00:57:45;100809.22;;;0.92;100.00
45525;BME280;31437;58.350;13.828;2023-03-03T01:00:11;100812.63;;;0.91;100.00
45525;BME280;31437;58.350;13.828;2023-03-03T01:02:36;100815.22;;;0.94;100.00
45525;BME280;31437;58.350;13.828;2023-03-03T01:05:02;100822.13;;;0.90;100.00
45525;BME280;31437;58.350;13.828;2023-03-03T01:07:27;100822.16;;;0.84;100.00
45525;BME280;31437;58.350;13.828;2023-03-03T01:09:52;100829.94;;;0.77;100.00
45525;BME280;31437;58.350;13.828;2023-03-03T01:12:17;100840.28;;;0.71;100.00
45525;BME280;31437;58.350;13.828;2023-03-03T01:14:43;100854.91;;;0.75;100.00
45525;BME280;31437;58.350;13.828;2023-03-03T01:17:09;100849.72;;;0.78;100.00
45525;BME280;31437;58.350;13.828;2023-03-03T01:19:34;100854.06;;;0.74;100.00
45525;BME280;31437;58.350;13.828;2023-03-03T01:22:00;100847.16;;;0.76;100.00
45525;BME280;31437;58.350;13.828;2023-03-03T01:24:25;100835.13;;;0.77;100.00
45525;BME280;31437;58.350;13.828;2023-03-03T01:26:50;100822.19;;;0.80;100.00
45525;BME280;31437;58.350;13.828;2023-03-03T01:29:15;100774.81;;;0.84;100.00
45525;BME280;31437;58.350;13.828;2023-03-03T01:31:41;100757.56;;;0.87;100.00
45525;BME280;31437;58.350;13.828;2023-03-03T01:34:06;100744.59;;;0.94;100.00
45525;BME280;31437;58.350;13.828;2023-03-03T01:36:32;100723.03;;;0.99;100.00
45525;BME280;31437;58.350;13.828;2023-03-03T01:38:57;100698.03;;;1.04;100.00
45525;BME280;31437;58.350;13.828;2023-03-03T01:41:24;100684.22;;;1.10;100.00
45525;BME280;31437;58.350;13.828;2023-03-03T01:43:50;100673.00;;;1.11;100.00
45525;BME280;31437;58.350;13.828;2023-03-03T01:48:47;100627.28;;;1.19;100.00
45525;BME280;31437;58.350;13.828;2023-03-03T01:53:39;100621.25;;;1.22;100.00
45525;BME280;31437;58.350;13.828;2023-03-03T01:56:06;100622.13;;;1.18;100.00
45525;BME280;31437;58.350;13.828;2023-03-03T01:58:46;100631.63;;;1.14;100.00
45525;BME280;31437;58.350;13.828;2023-03-03T02:01:14;100639.44;;;1.08;100.00
45525;BME280;31437;58.350;13.828;2023-03-03T02:03:42;100643.81;;;1.01;100.00
45525;BME280;31437;58.350;13.828;2023-03-03T02:06:10;100653.31;;;0.96;100.00
45525;BME280;31437;58.350;13.828;2023-03-03T02:08:42;100655.09;;;0.89;100.00
45525;BME280;31437;58.350;13.828;2023-03-03T02:11:11;100667.22;;;0.80;100.00
45525;BME280;31437;58.350;13.828;2023-03-03T02:13:37;100670.72;;;0.71;100.00
45525;BME280;31437;58.350;13.828;2023-03-03T02:16:03;100683.63;;;0.66;100.00
45525;BME280;31437;58.350;13.828;2023-03-03T02:18:28;100681.94;;;0.61;100.00
45525;BME280;31437;58.350;13.828;2023-03-03T02:21:00;100671.63;;;0.59;100.00
45525;BME280;31437;58.350;13.828;2023-03-03T02:28:26;100625.09;;;0.67;100.00
45525;BME280;31437;58.350;13.828;2023-03-03T02:30:55;100617.31;;;0.70;100.00
45525;BME280;31437;58.350;13.828;2023-03-03T02:33:21;100608.72;;;0.73;100.00
45525;BME280;31437;58.350;13.828;2023-03-03T02:35:46;100604.38;;;0.73;100.00
45525;BME280;31437;58.350;13.828;2023-03-03T02:40:41;100565.59;;;0.81;100.00
45525;BME280;31437;58.350;13.828;2023-03-03T02:43:08;100553.53;;;0.86;100.00
45525;BME280;31437;58.350;13.828;2023-03-03T02:45:39;100535.47;;;0.83;100.00
45525;BME280;31437;58.350;13.828;2023-03-03T02:48:05;100491.66;;;0.72;100.00
45525;BME280;31437;58.350;13.828;2023-03-03T02:50:30;100500.91;;;0.93;100.00
45525;BME280;31437;58.350;13.828;2023-03-03T02:52:56;100496.53;;;1.00;100.00
45525;BME280;31437;58.350;13.828;2023-03-03T02:55:21;100481.00;;;1.03;100.00
45525;BME280;31437;58.350;13.828;2023-03-03T02:57:47;100471.50;;;1.06;100.00
45525;BME280;31437;58.350;13.828;2023-03-03T03:00:12;100469.75;;;1.10;100.00
45525;BME280;31437;58.350;13.828;2023-03-03T03:02:37;100464.53;;;1.13;100.00
45525;BME280;31437;58.350;13.828;2023-03-03T03:05:03;100465.41;;;1.15;100.00
45525;BME280;31437;58.350;13.828;2023-03-03T03:07:28;100463.69;;;1.12;100.00
45525;BME280;31437;58.350;13.828;2023-03-03T03:09:53;100455.06;;;1.15;100.00
45525;BME280;31437;58.350;13.828;2023-03-03T03:12:20;100458.47;;;1.17;100.00
45525;BME280;31437;58.350;13.828;2023-03-03T03:14:45;100465.41;;;1.15;100.00
45525;BME280;31437;58.350;13.828;2023-03-03T03:17:11;100473.19;;;1.10;100.00
45525;BME280;31437;58.350;13.828;2023-03-03T03:19:36;100480.13;;;1.05;100.00
45525;BME280;31437;58.350;13.828;2023-03-03T03:22:02;100480.13;;;1.05;100.00
45525;BME280;31437;58.350;13.828;2023-03-03T03:24:27;100484.47;;;1.02;100.00
45525;BME280;31437;58.350;13.828;2023-03-03T03:26:52;100486.19;;;1.00;100.00
45525;BME280;31437;58.350;13.828;2023-03-03T03:29:18;100486.19;;;1.00;100.00
45525;BME280;31437;58.350;13.828;2023-03-03T03:31:43;100480.19;;;0.99;100.00
45525;BME280;31437;58.350;13.828;2023-03-03T03:34:08;100475.88;;;1.01;100.00
45525;BME280;31437;58.350;13.828;2023-03-03T03:36:34;100472.44;;;1.01;100.00
45525;BME280;31437;58.350;13.828;2023-03-03T03:38:59;100453.47;;;1.02;100.00
45525;BME280;31437;58.350;13.828;2023-03-03T03:41:26;100443.09;;;1.06;100.00
45525;BME280;31437;58.350;13.828;2023-03-03T03:43:52;100430.97;;;1.11;100.00
45525;BME280;31437;58.350;13.828;2023-03-03T03:46:17;100424.00;;;1.17;100.00
45525;BME280;31437;58.350;13.828;2023-03-03T03:48:42;100418.84;;;1.18;100.00
45525;BME280;31437;58.350;13.828;2023-03-03T03:51:09;100400.69;;;1.23;100.00
45525;BME280;31437;58.350;13.828;2023-03-03T03:53:34;100393.72;;;1.28;100.00
45525;BME280;31437;58.350;13.828;2023-03-03T03:55:59;100384.25;;;1.28;100.00
45525;BME280;31437;58.350;13.828;2023-03-03T03:58:25;100385.09;;;1.30;100.00
45525;BME280;31437;58.350;13.828;2023-03-03T04:00:50;100361.75;;;1.35;100.00
45525;BME280;31437;58.350;13.828;2023-03-03T04:03:15;100378.97;;;1.36;100.00
45525;BME280;31437;58.350;13.828;2023-03-03T04:05:41;100375.50;;;1.39;100.00
45525;BME280;31437;58.350;13.828;2023-03-03T04:08:06;100367.75;;;1.39;100.00
45525;BME280;31437;58.350;13.828;2023-03-03T04:10:32;100359.06;;;1.43;100.00
45525;BME280;31437;58.350;13.828;2023-03-03T04:12:57;100344.41;;;1.45;100.00
45525;BME280;31437;58.350;13.828;2023-03-03T04:15:22;100346.13;;;1.43;100.00
45525;BME280;31437;58.350;13.828;2023-03-03T04:17:48;100345.34;;;1.38;100.00
45525;BME280;31437;58.350;13.828;2023-03-03T04:20:13;100348.81;;;1.35;100.00
45525;BME280;31437;58.350;13.828;2023-03-03T04:22:39;100342.88;;;1.30;100.00
45525;BME280;31437;58.350;13.828;2023-03-03T04:25:05;100337.75;;;1.27;100.00
45525;BME280;31437;58.350;13.828;2023-03-03T04:27:31;100335.22;;;1.22;100.00
45525;BME280;31437;58.350;13.828;2023-03-03T04:29:56;100336.09;;;1.20;100.00
45525;BME280;31437;58.350;13.828;2023-03-03T04:32:21;100343.94;;;1.13;100.00
45525;BME280;31437;58.350;13.828;2023-03-03T04:34:46;100331.06;;;1.12;100.00
45525;BME280;31437;58.350;13.828;2023-03-03T04:37:12;100323.31;;;1.10;100.00
45525;BME280;31437;58.350;13.828;2023-03-03T04:39:37;100308.69;;;1.09;100.00
45525;BME280;31437;58.350;13.828;2023-03-03T04:42:02;100317.31;;;1.08;100.00
45525;BME280;31437;58.350;13.828;2023-03-03T04:44:28;100316.50;;;1.06;100.00
45525;BME280;31437;58.350;13.828;2023-03-03T04:46:53;100300.09;;;1.09;100.00
45525;BME280;31437;58.350;13.828;2023-03-03T04:49:18;100302.69;;;1.09;100.00
45525;BME280;31437;58.350;13.828;2023-03-03T04:51:43;100295.78;;;1.08;100.00
45525;BME280;31437;58.350;13.828;2023-03-03T04:54:09;100303.56;;;1.06;100.00
45525;BME280;31437;58.350;13.828;2023-03-03T04:56:34;100294.97;;;1.03;100.00
45525;BME280;31437;58.350;13.828;2023-03-03T04:58:59;100282.91;;;1.06;100.00
45525;BME280;31437;58.350;13.828;2023-03-03T05:01:25;100281.22;;;1.04;100.00
45525;BME280;31437;58.350;13.828;2023-03-03T05:03:50;100286.44;;;0.99;100.00
45525;BME280;31437;58.350;13.828;2023-03-03T05:06:15;100270.00;;;1.06;100.00
45525;BME280;31437;58.350;13.828;2023-03-03T05:08:42;100263.94;;;1.09;100.00
45525;BME280;31437;58.350;13.828;2023-03-03T05:11:08;100260.50;;;1.05;100.00
45525;BME280;31437;58.350;13.828;2023-03-03T05:13:33;100246.69;;;1.08;100.00
45525;BME280;31437;58.350;13.828;2023-03-03T05:15:59;100242.38;;;1.10;100.00
45525;BME280;31437;58.350;13.828;2023-03-03T05:18:24;100235.50;;;1.07;100.00
45525;BME280;31437;58.350;13.828;2023-03-03T05:20:50;100232.03;;;1.08;100.00
45525;BME280;31437;58.350;13.828;2023-03-03T05:23:16;100219.91;;;1.15;100.00
45525;BME280;31437;58.350;13.828;2023-03-03T05:25:41;100217.19;;;1.23;100.00
45525;BME280;31437;58.350;13.828;2023-03-03T05:28:07;100199.94;;;1.25;100.00
45525;BME280;31437;58.350;13.828;2023-03-03T05:30:32;100201.53;;;1.32;100.00
45525;BME280;31437;58.350;13.828;2023-03-03T05:32:58;100203.31;;;1.28;100.00
45525;BME280;31437;58.350;13.828;2023-03-03T05:35:23;100194.63;;;1.34;100.00
45525;BME280;31437;58.350;13.828;2023-03-03T05:37:49;100194.63;;;1.34;100.00
45525;BME280;31437;58.350;13.828;2023-03-03T05:40:14;100199.00;;;1.30;100.00
45525;BME280;31437;58.350;13.828;2023-03-03T05:42:39;100196.47;;;1.26;100.00
45525;BME280;31437;58.350;13.828;2023-03-03T05:45:05;100190.50;;;1.22;100.00
45525;BME280;31437;58.350;13.828;2023-03-03T05:47:30;100196.50;;;1.23;100.00
45525;BME280;31437;58.350;13.828;2023-03-03T05:49:55;100190.53;;;1.19;100.00
45525;BME280;31437;58.350;13.828;2023-03-03T05:52:21;100201.72;;;1.21;100.00
45525;BME280;31437;58.350;13.828;2023-03-03T05:54:48;100190.44;;;1.27;100.00
45525;BME280;31437;58.350;13.828;2023-03-03T05:57:13;100183.44;;;1.32;100.00
45525;BME280;31437;58.350;13.828;2023-03-03T05:59:39;100185.16;;;1.33;100.00
45525;BME280;31437;58.350;13.828;2023-03-03T06:02:04;100182.53;;;1.34;100.00
45525;BME280;31437;58.350;13.828;2023-03-03T06:04:29;100193.78;;;1.32;100.00
45525;BME280;31437;58.350;13.828;2023-03-03T06:06:55;100188.59;;;1.32;100.00
45525;BME280;31437;58.350;13.828;2023-03-03T06:09:20;100189.56;;;1.28;100.00
45525;BME280;31437;58.350;13.828;2023-03-03T06:11:45;100187.84;;;1.27;100.00
45525;BME280;31437;58.350;13.828;2023-03-03T06:14:11;100184.44;;;1.25;100.00
45525;BME280;31437;58.350;13.828;2023-03-03T06:16:36;100179.16;;;1.29;100.00
45525;BME280;31437;58.350;13.828;2023-03-03T06:19:01;100187.66;;;1.39;100.00
45525;BME280;31437;58.350;13.828;2023-03-03T06:21:27;100181.47;;;1.46;100.00
45525;BME280;31437;58.350;13.828;2023-03-03T06:23:52;100175.34;;;1.53;100.00
45525;BME280;31437;58.350;13.828;2023-03-03T06:26:17;100171.75;;;1.62;100.00
45525;BME280;31437;58.350;13.828;2023-03-03T06:28:43;100165.22;;;1.89;100.00
45525;BME280;31437;58.350;13.828;2023-03-03T06:31:08;100153.91;;;2.37;100.00
45525;BME280;31437;58.350;13.828;2023-03-03T06:33:33;100147.38;;;2.59;100.00
45525;BME280;31437;58.350;13.828;2023-03-03T06:35:59;100141.44;;;2.54;100.00
45525;BME280;31437;58.350;13.828;2023-03-03T06:38:25;100130.25;;;2.54;100.00
45525;BME280;31437;58.350;13.828;2023-03-03T06:40:51;100132.97;;;2.47;100.00
45525;BME280;31437;58.350;13.828;2023-03-03T06:43:16;100124.59;;;2.35;100.00
45525;BME280;31437;58.350;13.828;2023-03-03T06:45:41;100133.59;;;2.18;100.00
45525;BME280;31437;58.350;13.828;2023-03-03T06:48:07;100136.44;;;2.04;100.00
45525;BME280;31437;58.350;13.828;2023-03-03T06:50:32;100145.28;;;1.94;100.00
45525;BME280;31437;58.350;13.828;2023-03-03T06:53:05;100146.31;;;1.84;100.00
45525;BME280;31437;58.350;13.828;2023-03-03T06:55:32;100157.63;;;1.80;100.00
45525;BME280;31437;58.350;13.828;2023-03-03T06:57:58;100156.81;;;1.76;100.00
45525;BME280;31437;58.350;13.828;2023-03-03T07:00:24;100159.44;;;1.75;100.00
45525;BME280;31437;58.350;13.828;2023-03-03T07:03:32;100160.34;;;1.72;100.00
45525;BME280;31437;58.350;13.828;2023-03-03T07:05:38;100141.38;;;1.72;100.00
45525;BME280;31437;58.350;13.828;2023-03-03T07:08:13;100140.44;;;1.76;100.00
45525;BME280;31437;58.350;13.828;2023-03-03T07:10:40;100145.50;;;1.82;100.00
45525;BME280;31437;58.350;13.828;2023-03-03T07:15:40;100130.88;;;2.23;100.00
45525;BME280;31437;58.350;13.828;2023-03-03T07:18:06;100122.06;;;2.33;100.00
45525;BME280;31437;58.350;13.828;2023-03-03T07:20:44;100110.66;;;2.40;100.00
45525;BME280;31437;58.350;13.828;2023-03-03T07:23:29;100096.72;;;2.47;100.00
45525;BME280;31437;58.350;13.828;2023-03-03T07:25:57;100087.06;;;2.54;100.00
45525;BME280;31437;58.350;13.828;2023-03-03T07:30:48;100073.69;;;2.72;100.00
45525;BME280;31437;58.350;13.828;2023-03-03T07:33:24;100065.00;;;2.75;100.00
45525;BME280;31437;58.350;13.828;2023-03-03T07:35:50;100061.47;;;2.78;100.00
45525;BME280;31437;58.350;13.828;2023-03-03T07:38:17;100057.13;;;2.80;100.00
45525;BME280;31437;58.350;13.828;2023-03-03T07:40:47;100033.56;;;2.89;100.00
45525;BME280;31437;58.350;13.828;2023-03-03T07:46:18;100020.56;;;3.23;100.00
45525;BME280;31437;58.350;13.828;2023-03-03T07:48:45;100006.06;;;3.49;100.00
45525;BME280;31437;58.350;13.828;2023-03-03T07:54:23;99976.44;;;4.42;100.00
45525;BME280;31437;58.350;13.828;2023-03-03T07:56:41;99927.72;;;4.75;100.00
45525;BME280;31437;58.350;13.828;2023-03-03T07:59:23;99929.97;;;5.09;100.00
45525;BME280;31437;58.350;13.828;2023-03-03T08:01:53;99924.03;;;5.29;100.00
45525;BME280;31437;58.350;13.828;2023-03-03T08:06:49;99912.50;;;5.60;100.00
45525;BME280;31437;58.350;13.828;2023-03-03T08:12:29;99888.44;;;5.77;100.00
45525;BME280;31437;58.350;13.828;2023-03-03T08:14:29;99890.25;;;5.75;100.00
45525;BME280;31437;58.350;13.828;2023-03-03T08:16:55;99890.00;;;5.81;100.00
45525;BME280;31437;58.350;13.828;2023-03-03T08:19:21;99879.97;;;5.94;100.00
45525;BME280;31437;58.350;13.828;2023-03-03T08:21:47;99867.84;;;5.92;100.00
45525;BME280;31437;58.350;13.828;2023-03-03T08:24:12;99871.38;;;6.13;100.00
45525;BME280;31437;58.350;13.828;2023-03-03T08:26:37;99870.59;;;6.32;100.00
45525;BME280;31437;58.350;13.828;2023-03-03T08:29:03;99871.97;;;6.41;100.00
45525;BME280;31437;58.350;13.828;2023-03-03T08:31:28;99874.53;;;6.42;100.00
45525;BME280;31437;58.350;13.828;2023-03-03T08:33:53;99876.09;;;6.46;100.00
45525;BME280;31437;58.350;13.828;2023-03-03T08:36:19;99870.34;;;6.38;100.00
45525;BME280;31437;58.350;13.828;2023-03-03T08:38:44;99864.94;;;6.22;100.00
45525;BME280;31437;58.350;13.828;2023-03-03T08:41:10;99867.63;;;6.21;100.00
45525;BME280;31437;58.350;13.828;2023-03-03T08:43:35;99857.28;;;6.18;100.00
45525;BME280;31437;58.350;13.828;2023-03-03T08:46:01;99856.59;;;6.14;100.00
45525;BME280;31437;58.350;13.828;2023-03-03T08:48:29;99842.81;;;6.12;100.00
45525;BME280;31437;58.350;13.828;2023-03-03T08:50:54;99839.53;;;6.07;100.00
45525;BME280;31437;58.350;13.828;2023-03-03T08:53:20;99842.66;;;6.15;100.00
45525;BME280;31437;58.350;13.828;2023-03-03T08:55:46;99842.34;;;6.23;100.00
45525;BME280;31437;58.350;13.828;2023-03-03T08:58:12;99842.06;;;6.29;100.00
45525;BME280;31437;58.350;13.828;2023-03-03T09:00:37;99842.69;;;6.35;100.00
45525;BME280;31437;58.350;13.828;2023-03-03T09:03:03;99848.53;;;6.41;100.00
45525;BME280;31437;58.350;13.828;2023-03-03T09:05:30;99846.41;;;6.50;100.00
45525;BME280;31437;58.350;13.828;2023-03-03T09:07:56;99839.72;;;6.64;100.00
45525;BME280;31437;58.350;13.828;2023-03-03T09:10:22;99837.78;;;6.69;100.00
45525;BME280;31437;58.350;13.828;2023-03-03T09:12:51;99808.03;;;6.54;100.00
45525;BME280;31437;58.350;13.828;2023-03-03T09:15:27;99829.38;;;6.62;100.00
45525;BME280;31437;58.350;13.828;2023-03-03T09:17:53;99831.22;;;6.60;100.00
45525;BME280;31437;58.350;13.828;2023-03-03T09:22:53;99832.75;;;6.64;100.00
45525;BME280;31437;58.350;13.828;2023-03-03T09:25:52;99829.88;;;6.70;100.00
45525;BME280;31437;58.350;13.828;2023-03-03T09:30:46;99821.88;;;6.54;100.00
45525;BME280;31437;58.350;13.828;2023-03-03T09:33:23;99823.97;;;6.46;100.00
45525;BME280;31437;58.350;13.828;2023-03-03T09:35:53;99816.16;;;6.46;100.00
45525;BME280;31437;58.350;13.828;2023-03-03T09:38:29;99796.22;;;6.45;100.00
45525;BME280;31437;58.350;13.828;2023-03-03T09:43:29;99813.16;;;6.35;100.00
45525;BME280;31437;58.350;13.828;2023-03-03T09:46:13;99798.53;;;6.32;100.00
45525;BME280;31437;58.350;13.828;2023-03-03T09:48:47;99783.53;;;6.37;100.00
45525;BME280;31437;58.350;13.828;2023-03-03T09:51:23;99774.94;;;6.35;100.00
45525;BME280;31437;58.350;13.828;2023-03-03T10:03:51;99734.44;;;6.28;100.00
45525;BME280;31437;58.350;13.828;2023-03-03T10:09:20;99718.09;;;6.25;100.00
45525;BME280;31437;58.350;13.828;2023-03-03T10:12:17;99714.00;;;6.19;100.00
45525;BME280;31437;58.350;13.828;2023-03-03T10:33:11;99662.75;;;6.20;100.00
45525;BME280;31437;58.350;13.828;2023-03-03T10:35:48;99657.25;;;6.26;100.00
45525;BME280;31437;58.350;13.828;2023-03-03T10:40:56;99649.84;;;6.56;100.00
45525;BME280;31437;58.350;13.828;2023-03-03T10:48:19;99642.09;;;6.91;100.00
45525;BME280;31437;58.350;13.828;2023-03-03T10:53:36;99624.34;;;6.99;100.00
45525;BME280;31437;58.350;13.828;2023-03-03T11:01:12;99612.84;;;7.03;100.00
45525;BME280;31437;58.350;13.828;2023-03-03T11:06:24;99600.88;;;6.99;100.00
45525;BME280;31437;58.350;13.828;2023-03-03T11:13:50;99579.03;;;6.65;100.00
45525;BME280;31437;58.350;13.828;2023-03-03T11:24:22;99578.13;;;6.28;100.00
45525;BME280;31437;58.350;13.828;2023-03-03T11:27:05;99573.06;;;6.25;100.00
45525;BME280;31437;58.350;13.828;2023-03-03T11:36:04;99566.91;;;6.09;100.00
45525;BME280;31437;58.350;13.828;2023-03-03T11:40:48;99558.03;;;5.92;100.00
45525;BME280;31437;58.350;13.828;2023-03-03T11:45:52;99530.66;;;5.84;100.00
45525;BME280;31437;58.350;13.828;2023-03-03T11:55:42;99506.13;;;5.89;100.00
45525;BME280;31437;58.350;13.828;2023-03-03T12:13:53;99448.94;;;6.07;100.00
45525;BME280;31437;58.350;13.828;2023-03-03T12:24:01;99419.19;;;6.30;100.00
45525;BME280;31437;58.350;13.828;2023-03-03T12:29:04;99403.78;;;6.43;100.00
45525;BME280;31437;58.350;13.828;2023-03-03T12:34:04;99379.09;;;6.67;100.00
45525;BME280;31437;58.350;13.828;2023-03-03T12:49:06;99345.75;;;7.07;100.00
45525;BME280;31437;58.350;13.828;2023-03-03T12:54:09;99322.63;;;7.01;100.00
45525;BME280;31437;58.350;13.828;2023-03-03T12:59:04;99319.56;;;6.93;100.00
45525;BME280;31437;58.350;13.828;2023-03-03T13:01:42;99309.53;;;6.85;100.00
45525;BME280;31437;58.350;13.828;2023-03-03T13:27:17;99252.25;;;6.00;100.00
45525;BME280;31437;58.350;13.828;2023-03-03T13:29:52;99262.97;;;5.94;100.00
45525;BME280;31437;58.350;13.828;2023-03-03T13:32:21;99264.75;;;5.93;100.00
45525;BME280;31437;58.350;13.828;2023-03-03T13:44:46;99229.66;;;5.83;100.00
45525;BME280;31437;58.350;13.828;2023-03-03T13:52:19;99217.56;;;5.82;100.00
45525;BME280;31437;58.350;13.828;2023-03-03T14:02:38;99215.25;;;5.76;100.00
45525;BME280;31437;58.350;13.828;2023-03-03T14:05:15;99217.22;;;5.70;100.00
45525;BME280;31437;58.350;13.828;2023-03-03T14:07:51;99209.69;;;5.66;100.00
45525;BME280;31437;58.350;13.828;2023-03-03T14:10:20;99213.25;;;5.63;100.00
45525;BME280;31437;58.350;13.828;2023-03-03T14:12:58;99204.53;;;5.64;100.00
45525;BME280;31437;58.350;13.828;2023-03-03T14:18:01;99210.34;;;5.52;100.00
45525;BME280;31437;58.350;13.828;2023-03-03T14:20:37;99201.06;;;5.46;100.00
45525;BME280;31437;58.350;13.828;2023-03-03T14:23:09;99191.66;;;5.44;100.00
45525;BME280;31437;58.350;13.828;2023-03-03T14:28:47;99181.94;;;5.30;100.00
45525;BME280;31437;58.350;13.828;2023-03-03T14:33:56;99176.47;;;5.17;100.00
45525;BME280;31437;58.350;13.828;2023-03-03T14:36:32;99174.25;;;5.10;100.00
45525;BME280;31437;58.350;13.828;2023-03-03T14:39:00;99164.84;;;5.07;100.00
45525;BME280;31437;58.350;13.828;2023-03-03T14:41:39;99170.41;;;4.99;100.00
45525;BME280;31437;58.350;13.828;2023-03-03T14:44:24;99153.34;;;4.94;100.00
45525;BME280;31437;58.350;13.828;2023-03-03T14:49:34;99135.81;;;4.80;100.00
45525;BME280;31437;58.350;13.828;2023-03-03T14:52:10;99135.19;;;4.75;100.00
45525;BME280;31437;58.350;13.828;2023-03-03T14:54:46;99128.59;;;4.68;100.00
45525;BME280;31437;58.350;13.828;2023-03-03T14:59:59;99110.28;;;4.52;100.00
45525;BME280;31437;58.350;13.828;2023-03-03T15:02:31;99103.69;;;4.45;100.00
45525;BME280;31437;58.350;13.828;2023-03-03T15:07:43;99108.44;;;4.35;100.00
45525;BME280;31437;58.350;13.828;2023-03-03T15:10:09;99098.19;;;4.32;100.00
45525;BME280;31437;58.350;13.828;2023-03-03T15:12:37;99110.56;;;4.27;100.00
45525;BME280;31437;58.350;13.828;2023-03-03T15:17:34;99111.41;;;4.27;100.00
45525;BME280;31437;58.350;13.828;2023-03-03T15:20:08;99105.25;;;4.30;100.00
45525;BME280;31437;58.350;13.828;2023-03-03T15:22:59;99097.38;;;4.31;100.00
45525;BME280;31437;58.350;13.828;2023-03-03T15:25:41;99105.94;;;4.33;100.00
45525;BME280;31437;58.350;13.828;2023-03-03T15:30:44;99092.94;;;4.33;100.00
45525;BME280;31437;58.350;13.828;2023-03-03T15:35:49;99086.22;;;4.29;100.00
45525;BME280;31437;58.350;13.828;2023-03-03T15:40:48;99090.97;;;4.20;100.00
45525;BME280;31437;58.350;13.828;2023-03-03T15:43:31;99077.44;;;4.13;100.00
45525;BME280;31437;58.350;13.828;2023-03-03T15:46:14;99082.13;;;4.05;100.00
45525;BME280;31437;58.350;13.828;2023-03-03T15:56:42;99088.41;;;3.80;100.00
45525;BME280;31437;58.350;13.828;2023-03-03T16:01:59;99081.22;;;3.67;100.00
45525;BME280;31437;58.350;13.828;2023-03-03T16:04:28;99091.97;;;3.59;100.00
45525;BME280;31437;58.350;13.828;2023-03-03T16:06:59;99091.31;;;3.54;100.00
45525;BME280;31437;58.350;13.828;2023-03-03T16:09:35;99084.63;;;3.48;100.00
45525;BME280;31437;58.350;13.828;2023-03-03T16:15:18;99081.47;;;3.41;100.00
45525;BME280;31437;58.350;13.828;2023-03-03T16:17:31;99094.59;;;3.37;100.00
45525;BME280;31437;58.350;13.828;2023-03-03T16:20:10;99096.28;;;3.38;100.00
45525;BME280;31437;58.350;13.828;2023-03-03T16:27:57;99082.94;;;3.27;100.00
45525;BME280;31437;58.350;13.828;2023-03-03T16:30:26;99077.88;;;3.24;100.00
45525;BME280;31437;58.350;13.828;2023-03-03T16:35:38;99076.25;;;3.21;100.00
45525;BME280;31437;58.350;13.828;2023-03-03T16:40:56;99075.47;;;3.19;100.00
45525;BME280;31437;58.350;13.828;2023-03-03T16:45:55;99067.00;;;3.15;100.00
45525;BME280;31437;58.350;13.828;2023-03-03T16:48:39;99077.28;;;3.17;100.00
45525;BME280;31437;58.350;13.828;2023-03-03T16:56:40;99075.34;;;3.22;100.00
45525;BME280;31437;58.350;13.828;2023-03-03T16:59:25;99085.72;;;3.22;100.00
45525;BME280;31437;58.350;13.828;2023-03-03T17:02:02;99085.97;;;3.16;100.00
45525;BME280;31437;58.350;13.828;2023-03-03T17:12:07;99097.56;;;3.07;100.00
45525;BME280;31437;58.350;13.828;2023-03-03T17:14:44;99092.69;;;3.00;100.00
45525;BME280;31437;58.350;13.828;2023-03-03T17:25:11;99083.47;;;2.92;100.00
45525;BME280;31437;58.350;13.828;2023-03-03T17:30:38;99089.75;;;2.87;100.00
45525;BME280;31437;58.350;13.828;2023-03-03T17:36:20;99082.22;;;2.81;100.00
45525;BME280;31437;58.350;13.828;2023-03-03T17:38:37;99084.84;;;2.79;100.00
45525;BME280;31437;58.350;13.828;2023-03-03T17:41:14;99084.84;;;2.79;100.00
45525;BME280;31437;58.350;13.828;2023-03-03T17:46:14;99086.94;;;2.71;100.00
45525;BME280;31437;58.350;13.828;2023-03-03T17:49:16;99084.50;;;2.66;100.00
45525;BME280;31437;58.350;13.828;2023-03-03T17:54:58;99095.81;;;2.64;100.00